sensor_id;sensor_type;location;lat;lon;timestamp;temperature;humidity
40638;DHT22;26336;44.696;10.622;2023-05-10T00:01:15;16.10;99.90
40638;DHT22;26336;44.696;10.622;2023-05-10T00:04:18;16.00;99.90
40638;DHT22;26336;44.696;10.622;2023-05-10T00:07:22;15.90;99.90
40638;DHT22;26336;44.696;10.622;2023-05-10T00:10:25;15.90;99.90
40638;DHT22;26336;44.696;10.622;2023-05-10T00:13:30;16.00;99.90
40638;DHT22;26336;44.696;10.622;2023-05-10T00:16:34;16.20;99.90
40638;DHT22;26336;44.696;10.622;2023-05-10T00:19:38;16.40;99.90
40638;DHT22;26336;44.696;10.622;2023-05-10T00:22:41;16.40;99.90
40638;DHT22;26336;44.696;10.622;2023-05-10T00:25:45;16.50;99.90
40638;DHT22;26336;44.696;10.622;2023-05-10T00:28:48;16.50;99.90
40638;DHT22;26336;44.696;10.622;2023-05-10T00:31:52;16.60;99.90
40638;DHT22;26336;44.696;10.622;2023-05-10T00:34:55;16.70;99.90
40638;DHT22;26336;44.696;10.622;2023-05-10T00:37:59;16.80;99.90
40638;DHT22;26336;44.696;10.622;2023-05-10T00:41:03;16.80;99.90
40638;DHT22;26336;44.696;10.622;2023-05-10T00:44:09;16.50;99.90
40638;DHT22;26336;44.696;10.622;2023-05-10T00:47:13;16.20;99.90
40638;DHT22;26336;44.696;10.622;2023-05-10T00:50:18;16.10;99.90
40638;DHT22;26336;44.696;10.622;2023-05-10T00:53:22;15.90;99.90
40638;DHT22;26336;44.696;10.622;2023-05-10T00:56:27;15.60;99.90
40638;DHT22;26336;44.696;10.622;2023-05-10T00:59:32;15.60;99.90
40638;DHT22;26336;44.696;10.622;2023-05-10T01:02:36;15.50;99.90
40638;DHT22;26336;44.696;10.622;2023-05-10T01:05:41;15.40;99.90
40638;DHT22;26336;44.696;10.622;2023-05-10T01:08:44;15.40;99.90
40638;DHT22;26336;44.696;10.622;2023-05-10T01:11:49;15.60;99.90
40638;DHT22;26336;44.696;10.622;2023-05-10T01:14:54;15.60;99.90
40638;DHT22;26336;44.696;10.622;2023-05-10T01:17:58;15.50;99.90
40638;DHT22;26336;44.696;10.622;2023-05-10T01:24:38;15.50;99.90
40638;DHT22;26336;44.696;10.622;2023-05-10T01:34:09;15.00;99.90
40638;DHT22;26336;44.696;10.622;2023-05-10T01:37:20;14.90;99.90
40638;DHT22;26336;44.696;10.622;2023-05-10T01:47:07;14.90;99.90
40638;DHT22;26336;44.696;10.622;2023-05-10T01:50:23;14.80;99.90
40638;DHT22;26336;44.696;10.622;2023-05-10T01:53:27;14.70;99.90
40638;DHT22;26336;44.696;10.622;2023-05-10T01:56:32;14.60;99.90
40638;DHT22;26336;44.696;10.622;2023-05-10T01:59:36;14.60;99.90
40638;DHT22;26336;44.696;10.622;2023-05-10T02:02:45;14.60;99.90
40638;DHT22;26336;44.696;10.622;2023-05-10T02:05:49;14.50;99.90
40638;DHT22;26336;44.696;10.622;2023-05-10T02:08:54;14.60;99.90
40638;DHT22;26336;44.696;10.622;2023-05-10T02:11:59;14.60;99.90
40638;DHT22;26336;44.696;10.622;2023-05-10T02:15:05;14.60;99.90
40638;DHT22;26336;44.696;10.622;2023-05-10T02:18:10;14.60;99.90
40638;DHT22;26336;44.696;10.622;2023-05-10T02:21:15;14.70;99.90
40638;DHT22;26336;44.696;10.622;2023-05-10T02:24:19;14.70;99.90
40638;DHT22;26336;44.696;10.622;2023-05-10T02:27:25;14.60;99.90
40638;DHT22;26336;44.696;10.622;2023-05-10T02:30:31;14.50;99.90
40638;DHT22;26336;44.696;10.622;2023-05-10T02:33:35;14.50;99.90
40638;DHT22;26336;44.696;10.622;2023-05-10T02:36:39;14.50;99.90
40638;DHT22;26336;44.696;10.622;2023-05-10T02:39:43;14.50;99.90
40638;DHT22;26336;44.696;10.622;2023-05-10T02:42:50;14.50;99.90
40638;DHT22;26336;44.696;10.622;2023-05-10T02:45:54;14.50;99.90
40638;DHT22;26336;44.696;10.622;2023-05-10T02:48:58;14.40;99.90
40638;DHT22;26336;44.696;10.622;2023-05-10T02:52:04;14.40;99.90
40638;DHT22;26336;44.696;10.622;2023-05-10T02:55:11;14.40;99.90
40638;DHT22;26336;44.696;10.622;2023-05-10T02:58:16;14.30;99.90
40638;DHT22;26336;44.696;10.622;2023-05-10T03:01:22;14.30;99.90
40638;DHT22;26336;44.696;10.622;2023-05-10T03:04:26;14.40;99.90
40638;DHT22;26336;44.696;10.622;2023-05-10T03:07:33;14.30;99.90
40638;DHT22;26336;44.696;10.622;2023-05-10T03:10:50;14.20;99.90
40638;DHT22;26336;44.696;10.622;2023-05-10T03:20:35;14.30;99.90
40638;DHT22;26336;44.696;10.622;2023-05-10T03:23:43;14.20;99.90
40638;DHT22;26336;44.696;10.622;2023-05-10T03:26:47;14.20;99.90
40638;DHT22;26336;44.696;10.622;2023-05-10T03:29:55;14.10;99.90
40638;DHT22;26336;44.696;10.622;2023-05-10T03:33:04;14.20;99.90
40638;DHT22;26336;44.696;10.622;2023-05-10T03:36:07;14.20;99.90
40638;DHT22;26336;44.696;10.622;2023-05-10T03:39:11;14.20;99.90
40638;DHT22;26336;44.696;10.622;2023-05-10T03:42:15;14.30;99.90
40638;DHT22;26336;44.696;10.622;2023-05-10T03:45:21;14.10;99.90
40638;DHT22;26336;44.696;10.622;2023-05-10T03:48:25;14.10;99.90
40638;DHT22;26336;44.696;10.622;2023-05-10T03:51:30;14.10;99.90
40638;DHT22;26336;44.696;10.622;2023-05-10T03:54:34;14.10;99.90
40638;DHT22;26336;44.696;10.622;2023-05-10T03:57:38;14.10;99.90
40638;DHT22;26336;44.696;10.622;2023-05-10T04:00:44;14.10;99.90
40638;DHT22;26336;44.696;10.622;2023-05-10T04:03:49;14.10;99.90
40638;DHT22;26336;44.696;10.622;2023-05-10T04:06:53;14.10;99.90
40638;DHT22;26336;44.696;10.622;2023-05-10T04:09:58;14.10;99.90
40638;DHT22;26336;44.696;10.622;2023-05-10T04:13:02;14.10;99.90
40638;DHT22;26336;44.696;10.622;2023-05-10T04:16:06;14.00;99.90
40638;DHT22;26336;44.696;10.622;2023-05-10T04:19:10;14.00;99.90
40638;DHT22;26336;44.696;10.622;2023-05-10T04:22:14;13.90;99.90
40638;DHT22;26336;44.696;10.622;2023-05-10T04:25:18;13.90;99.90
40638;DHT22;26336;44.696;10.622;2023-05-10T04:28:22;13.80;99.90
40638;DHT22;26336;44.696;10.622;2023-05-10T04:31:26;13.90;99.90
40638;DHT22;26336;44.696;10.622;2023-05-10T04:34:31;13.90;99.90
40638;DHT22;26336;44.696;10.622;2023-05-10T04:37:38;13.80;99.90
40638;DHT22;26336;44.696;10.622;2023-05-10T04:40:42;13.90;99.90
40638;DHT22;26336;44.696;10.622;2023-05-10T04:43:45;13.80;99.90
40638;DHT22;26336;44.696;10.622;2023-05-10T04:46:49;13.90;99.90
40638;DHT22;26336;44.696;10.622;2023-05-10T04:49:53;13.90;99.90
40638;DHT22;26336;44.696;10.622;2023-05-10T04:52:57;14.00;99.90
40638;DHT22;26336;44.696;10.622;2023-05-10T04:56:01;14.00;99.90
40638;DHT22;26336;44.696;10.622;2023-05-10T04:59:05;13.90;99.90
40638;DHT22;26336;44.696;10.622;2023-05-10T05:02:09;13.90;99.90
40638;DHT22;26336;44.696;10.622;2023-05-10T05:05:13;13.80;99.90
40638;DHT22;26336;44.696;10.622;2023-05-10T05:08:17;13.70;99.90
40638;DHT22;26336;44.696;10.622;2023-05-10T05:11:21;13.80;99.90
40638;DHT22;26336;44.696;10.622;2023-05-10T05:14:27;13.80;99.90
40638;DHT22;26336;44.696;10.622;2023-05-10T05:17:31;13.80;99.90
40638;DHT22;26336;44.696;10.622;2023-05-10T05:20:36;13.80;99.90
40638;DHT22;26336;44.696;10.622;2023-05-10T05:23:40;13.90;99.90
40638;DHT22;26336;44.696;10.622;2023-05-10T05:26:44;13.80;99.90
40638;DHT22;26336;44.696;10.622;2023-05-10T05:29:47;13.80;99.90
40638;DHT22;26336;44.696;10.622;2023-05-10T05:32:51;13.70;99.90
40638;DHT22;26336;44.696;10.622;2023-05-10T05:35:55;13.80;99.90
40638;DHT22;26336;44.696;10.622;2023-05-10T05:38:59;13.70;99.90
40638;DHT22;26336;44.696;10.622;2023-05-10T05:42:03;13.70;99.90
40638;DHT22;26336;44.696;10.622;2023-05-10T05:45:07;13.70;99.90
40638;DHT22;26336;44.696;10.622;2023-05-10T05:48:13;13.60;99.90
40638;DHT22;26336;44.696;10.622;2023-05-10T05:51:17;13.50;99.90
40638;DHT22;26336;44.696;10.622;2023-05-10T05:54:21;13.60;99.90
40638;DHT22;26336;44.696;10.622;2023-05-10T05:57:25;13.60;99.90
40638;DHT22;26336;44.696;10.622;2023-05-10T06:00:30;13.60;99.90
40638;DHT22;26336;44.696;10.622;2023-05-10T06:03:34;13.50;99.90
40638;DHT22;26336;44.696;10.622;2023-05-10T06:06:38;13.50;99.90
40638;DHT22;26336;44.696;10.622;2023-05-10T06:09:42;13.60;99.90
40638;DHT22;26336;44.696;10.622;2023-05-10T06:12:46;13.60;99.90
40638;DHT22;26336;44.696;10.622;2023-05-10T06:15:50;13.60;99.90
40638;DHT22;26336;44.696;10.622;2023-05-10T06:18:54;13.70;99.90
40638;DHT22;26336;44.696;10.622;2023-05-10T06:21:58;13.70;99.90
40638;DHT22;26336;44.696;10.622;2023-05-10T06:25:02;13.80;99.90
40638;DHT22;26336;44.696;10.622;2023-05-10T06:28:06;13.70;99.90
40638;DHT22;26336;44.696;10.622;2023-05-10T06:31:10;13.60;99.90
40638;DHT22;26336;44.696;10.622;2023-05-10T06:34:15;13.60;99.90
40638;DHT22;26336;44.696;10.622;2023-05-10T06:37:18;13.60;99.90
40638;DHT22;26336;44.696;10.622;2023-05-10T06:40:22;13.60;99.90
40638;DHT22;26336;44.696;10.622;2023-05-10T06:43:26;13.50;99.90
40638;DHT22;26336;44.696;10.622;2023-05-10T06:46:32;13.60;99.90
40638;DHT22;26336;44.696;10.622;2023-05-10T06:49:36;13.50;99.90
40638;DHT22;26336;44.696;10.622;2023-05-10T06:52:40;13.60;99.90
40638;DHT22;26336;44.696;10.622;2023-05-10T06:55:44;13.60;99.90
40638;DHT22;26336;44.696;10.622;2023-05-10T06:58:48;13.70;99.90
40638;DHT22;26336;44.696;10.622;2023-05-10T07:01:52;13.70;99.90
40638;DHT22;26336;44.696;10.622;2023-05-10T07:04:57;13.60;99.90
40638;DHT22;26336;44.696;10.622;2023-05-10T07:08:01;13.60;99.90
40638;DHT22;26336;44.696;10.622;2023-05-10T07:11:06;13.60;99.90
40638;DHT22;26336;44.696;10.622;2023-05-10T07:14:13;13.70;99.90
40638;DHT22;26336;44.696;10.622;2023-05-10T07:17:17;13.80;99.90
40638;DHT22;26336;44.696;10.622;2023-05-10T07:20:21;13.90;99.90
40638;DHT22;26336;44.696;10.622;2023-05-10T07:23:26;13.90;99.90
40638;DHT22;26336;44.696;10.622;2023-05-10T07:26:29;14.10;99.90
40638;DHT22;26336;44.696;10.622;2023-05-10T07:29:33;14.10;99.90
40638;DHT22;26336;44.696;10.622;2023-05-10T07:32:37;14.10;99.90
40638;DHT22;26336;44.696;10.622;2023-05-10T07:35:42;14.10;99.90
40638;DHT22;26336;44.696;10.622;2023-05-10T07:38:46;14.20;99.90
40638;DHT22;26336;44.696;10.622;2023-05-10T07:41:50;14.10;99.90
40638;DHT22;26336;44.696;10.622;2023-05-10T07:44:54;14.00;99.90
40638;DHT22;26336;44.696;10.622;2023-05-10T07:47:57;14.00;99.90
40638;DHT22;26336;44.696;10.622;2023-05-10T07:51:01;14.10;99.90
40638;DHT22;26336;44.696;10.622;2023-05-10T07:54:05;14.20;99.90
40638;DHT22;26336;44.696;10.622;2023-05-10T07:57:09;14.30;99.90
40638;DHT22;26336;44.696;10.622;2023-05-10T08:00:13;14.40;99.90
40638;DHT22;26336;44.696;10.622;2023-05-10T08:03:20;14.40;99.90
40638;DHT22;26336;44.696;10.622;2023-05-10T08:06:23;14.50;99.90
40638;DHT22;26336;44.696;10.622;2023-05-10T08:09:30;14.30;99.90
40638;DHT22;26336;44.696;10.622;2023-05-10T08:12:33;14.40;99.90
40638;DHT22;26336;44.696;10.622;2023-05-10T08:15:37;14.30;99.90
40638;DHT22;26336;44.696;10.622;2023-05-10T08:18:42;14.20;99.90
40638;DHT22;26336;44.696;10.622;2023-05-10T08:21:47;14.30;99.90
40638;DHT22;26336;44.696;10.622;2023-05-10T08:24:51;14.30;99.90
40638;DHT22;26336;44.696;10.622;2023-05-10T08:27:54;14.30;99.90
40638;DHT22;26336;44.696;10.622;2023-05-10T08:30:59;14.40;99.90
40638;DHT22;26336;44.696;10.622;2023-05-10T08:34:02;14.40;99.90
40638;DHT22;26336;44.696;10.622;2023-05-10T08:37:06;14.40;99.90
40638;DHT22;26336;44.696;10.622;2023-05-10T08:40:10;14.40;99.90
40638;DHT22;26336;44.696;10.622;2023-05-10T08:43:14;14.40;99.90
40638;DHT22;26336;44.696;10.622;2023-05-10T08:46:19;14.50;99.90
40638;DHT22;26336;44.696;10.622;2023-05-10T08:49:23;14.40;99.90
40638;DHT22;26336;44.696;10.622;2023-05-10T08:52:28;14.40;99.90
40638;DHT22;26336;44.696;10.622;2023-05-10T08:55:33;14.40;99.90
40638;DHT22;26336;44.696;10.622;2023-05-10T08:58:37;14.40;99.90
40638;DHT22;26336;44.696;10.622;2023-05-10T09:01:42;14.40;99.90
40638;DHT22;26336;44.696;10.622;2023-05-10T09:04:51;14.30;99.90
40638;DHT22;26336;44.696;10.622;2023-05-10T09:07:55;14.20;99.90
40638;DHT22;26336;44.696;10.622;2023-05-10T09:10:59;14.30;99.90
40638;DHT22;26336;44.696;10.622;2023-05-10T09:14:04;14.30;99.90
40638;DHT22;26336;44.696;10.622;2023-05-10T09:17:08;14.30;99.90
40638;DHT22;26336;44.696;10.622;2023-05-10T09:20:12;14.20;99.90
40638;DHT22;26336;44.696;10.622;2023-05-10T09:23:16;14.20;99.90
40638;DHT22;26336;44.696;10.622;2023-05-10T09:26:23;14.30;99.90
40638;DHT22;26336;44.696;10.622;2023-05-10T09:29:26;14.30;99.90
40638;DHT22;26336;44.696;10.622;2023-05-10T09:32:43;14.20;99.90
40638;DHT22;26336;44.696;10.622;2023-05-10T09:35:47;14.10;99.90
40638;DHT22;26336;44.696;10.622;2023-05-10T09:38:55;14.10;99.90
40638;DHT22;26336;44.696;10.622;2023-05-10T09:41:59;14.10;99.90
40638;DHT22;26336;44.696;10.622;2023-05-10T09:45:04;14.10;99.90
40638;DHT22;26336;44.696;10.622;2023-05-10T09:48:08;14.10;99.90
40638;DHT22;26336;44.696;10.622;2023-05-10T09:51:18;14.10;99.90
40638;DHT22;26336;44.696;10.622;2023-05-10T09:54:22;14.10;99.90
40638;DHT22;26336;44.696;10.622;2023-05-10T09:57:27;14.10;99.90
40638;DHT22;26336;44.696;10.622;2023-05-10T10:00:35;14.10;99.90
40638;DHT22;26336;44.696;10.622;2023-05-10T10:03:42;14.10;99.90
40638;DHT22;26336;44.696;10.622;2023-05-10T10:06:47;14.10;99.90
40638;DHT22;26336;44.696;10.622;2023-05-10T10:10:01;14.10;99.90
40638;DHT22;26336;44.696;10.622;2023-05-10T10:13:05;14.10;99.90
40638;DHT22;26336;44.696;10.622;2023-05-10T10:16:09;14.10;99.90
40638;DHT22;26336;44.696;10.622;2023-05-10T10:19:13;14.10;99.90
40638;DHT22;26336;44.696;10.622;2023-05-10T10:22:17;14.00;99.90
40638;DHT22;26336;44.696;10.622;2023-05-10T10:25:20;14.00;99.90
40638;DHT22;26336;44.696;10.622;2023-05-10T10:31:47;14.00;99.90
40638;DHT22;26336;44.696;10.622;2023-05-10T10:34:53;14.00;99.90
40638;DHT22;26336;44.696;10.622;2023-05-10T10:37:58;14.10;99.90
40638;DHT22;26336;44.696;10.622;2023-05-10T10:41:11;14.10;99.90
40638;DHT22;26336;44.696;10.622;2023-05-10T10:44:26;14.10;99.90
40638;DHT22;26336;44.696;10.622;2023-05-10T10:47:30;14.10;99.90
40638;DHT22;26336;44.696;10.622;2023-05-10T10:50:45;14.00;99.90
40638;DHT22;26336;44.696;10.622;2023-05-10T10:53:49;14.00;99.90
40638;DHT22;26336;44.696;10.622;2023-05-10T10:57:12;13.80;99.90
40638;DHT22;26336;44.696;10.622;2023-05-10T11:00:26;13.70;99.90
40638;DHT22;26336;44.696;10.622;2023-05-10T11:03:31;13.60;99.90
40638;DHT22;26336;44.696;10.622;2023-05-10T11:06:34;13.70;99.90
40638;DHT22;26336;44.696;10.622;2023-05-10T11:09:39;13.80;99.90
40638;DHT22;26336;44.696;10.622;2023-05-10T11:15:57;13.90;99.90
40638;DHT22;26336;44.696;10.622;2023-05-10T11:19:11;14.00;99.90
40638;DHT22;26336;44.696;10.622;2023-05-10T11:22:15;14.10;99.90
40638;DHT22;26336;44.696;10.622;2023-05-10T11:25:28;14.20;99.90
40638;DHT22;26336;44.696;10.622;2023-05-10T11:28:32;14.20;99.90
40638;DHT22;26336;44.696;10.622;2023-05-10T11:31:41;14.20;99.90
40638;DHT22;26336;44.696;10.622;2023-05-10T11:34:46;14.20;99.90
40638;DHT22;26336;44.696;10.622;2023-05-10T11:37:51;14.20;99.90
40638;DHT22;26336;44.696;10.622;2023-05-10T11:40:54;14.30;99.90
40638;DHT22;26336;44.696;10.622;2023-05-10T11:43:58;14.20;99.90
40638;DHT22;26336;44.696;10.622;2023-05-10T11:47:02;14.10;99.90
40638;DHT22;26336;44.696;10.622;2023-05-10T11:50:07;14.00;99.90
40638;DHT22;26336;44.696;10.622;2023-05-10T11:53:12;13.90;99.90
40638;DHT22;26336;44.696;10.622;2023-05-10T11:56:16;13.90;99.90
40638;DHT22;26336;44.696;10.622;2023-05-10T11:59:20;14.00;99.90
40638;DHT22;26336;44.696;10.622;2023-05-10T12:02:24;14.10;99.90
40638;DHT22;26336;44.696;10.622;2023-05-10T12:05:31;14.10;99.90
40638;DHT22;26336;44.696;10.622;2023-05-10T12:08:35;14.20;99.90
40638;DHT22;26336;44.696;10.622;2023-05-10T12:11:40;14.20;99.90
40638;DHT22;26336;44.696;10.622;2023-05-10T12:14:48;14.20;99.90
40638;DHT22;26336;44.696;10.622;2023-05-10T12:17:52;14.30;99.90
40638;DHT22;26336;44.696;10.622;2023-05-10T12:20:56;14.30;99.90
40638;DHT22;26336;44.696;10.622;2023-05-10T12:24:06;14.30;99.90
40638;DHT22;26336;44.696;10.622;2023-05-10T12:27:11;14.30;99.90
40638;DHT22;26336;44.696;10.622;2023-05-10T12:30:19;14.30;99.90
40638;DHT22;26336;44.696;10.622;2023-05-10T12:33:23;14.30;99.90
40638;DHT22;26336;44.696;10.622;2023-05-10T12:36:27;14.40;99.90
40638;DHT22;26336;44.696;10.622;2023-05-10T12:39:41;14.40;99.90
40638;DHT22;26336;44.696;10.622;2023-05-10T12:42:45;14.30;99.90
40638;DHT22;26336;44.696;10.622;2023-05-10T12:45:49;14.40;99.90
40638;DHT22;26336;44.696;10.622;2023-05-10T12:48:53;14.40;99.90
40638;DHT22;26336;44.696;10.622;2023-05-10T12:51:58;14.30;99.90
40638;DHT22;26336;44.696;10.622;2023-05-10T12:55:02;14.30;99.90
40638;DHT22;26336;44.696;10.622;2023-05-10T12:58:06;14.30;99.90
40638;DHT22;26336;44.696;10.622;2023-05-10T13:01:20;14.30;99.90
40638;DHT22;26336;44.696;10.622;2023-05-10T13:04:24;14.30;99.90
40638;DHT22;26336;44.696;10.622;2023-05-10T13:07:31;14.30;99.90
40638;DHT22;26336;44.696;10.622;2023-05-10T13:10:35;14.30;99.90
40638;DHT22;26336;44.696;10.622;2023-05-10T13:13:39;14.40;99.90
40638;DHT22;26336;44.696;10.622;2023-05-10T13:16:42;14.40;99.90
40638;DHT22;26336;44.696;10.622;2023-05-10T13:19:46;14.40;99.90
40638;DHT22;26336;44.696;10.622;2023-05-10T13:22:50;14.40;99.90
40638;DHT22;26336;44.696;10.622;2023-05-10T13:25:54;14.40;99.90
40638;DHT22;26336;44.696;10.622;2023-05-10T13:28:58;14.50;99.90
40638;DHT22;26336;44.696;10.622;2023-05-10T13:32:02;14.50;99.90
40638;DHT22;26336;44.696;10.622;2023-05-10T13:35:13;14.40;99.90
40638;DHT22;26336;44.696;10.622;2023-05-10T13:38:21;14.40;99.90
40638;DHT22;26336;44.696;10.622;2023-05-10T13:41:30;14.40;99.90
40638;DHT22;26336;44.696;10.622;2023-05-10T13:44:35;14.40;99.90
40638;DHT22;26336;44.696;10.622;2023-05-10T13:47:39;14.40;99.90
40638;DHT22;26336;44.696;10.622;2023-05-10T13:50:43;14.40;99.90
40638;DHT22;26336;44.696;10.622;2023-05-10T13:53:47;14.50;99.90
40638;DHT22;26336;44.696;10.622;2023-05-10T13:56:51;14.40;99.90
40638;DHT22;26336;44.696;10.622;2023-05-10T13:59:55;14.40;99.90
40638;DHT22;26336;44.696;10.622;2023-05-10T14:03:01;14.40;99.90
40638;DHT22;26336;44.696;10.622;2023-05-10T14:06:05;14.50;99.90
40638;DHT22;26336;44.696;10.622;2023-05-10T14:09:10;14.50;99.90
40638;DHT22;26336;44.696;10.622;2023-05-10T14:12:14;14.50;99.90
40638;DHT22;26336;44.696;10.622;2023-05-10T14:15:18;14.50;99.90
40638;DHT22;26336;44.696;10.622;2023-05-10T14:18:22;14.50;99.90
40638;DHT22;26336;44.696;10.622;2023-05-10T14:21:26;14.50;99.90
40638;DHT22;26336;44.696;10.622;2023-05-10T14:24:31;14.50;99.90
40638;DHT22;26336;44.696;10.622;2023-05-10T14:27:35;14.50;99.90
40638;DHT22;26336;44.696;10.622;2023-05-10T14:30:39;14.50;99.90
40638;DHT22;26336;44.696;10.622;2023-05-10T14:33:43;14.50;99.90
40638;DHT22;26336;44.696;10.622;2023-05-10T14:36:46;14.50;99.90
40638;DHT22;26336;44.696;10.622;2023-05-10T14:39:50;14.50;99.90
40638;DHT22;26336;44.696;10.622;2023-05-10T14:42:54;14.50;99.90
40638;DHT22;26336;44.696;10.622;2023-05-10T14:45:59;14.50;99.90
40638;DHT22;26336;44.696;10.622;2023-05-10T14:49:03;14.50;99.90
40638;DHT22;26336;44.696;10.622;2023-05-10T14:52:07;14.50;99.90
40638;DHT22;26336;44.696;10.622;2023-05-10T14:55:11;14.50;99.90
40638;DHT22;26336;44.696;10.622;2023-05-10T14:58:15;14.50;99.90
40638;DHT22;26336;44.696;10.622;2023-05-10T15:01:20;14.50;99.90
40638;DHT22;26336;44.696;10.622;2023-05-10T15:04:24;14.60;99.90
40638;DHT22;26336;44.696;10.622;2023-05-10T15:07:28;14.50;99.90
40638;DHT22;26336;44.696;10.622;2023-05-10T15:10:33;14.60;99.90
40638;DHT22;26336;44.696;10.622;2023-05-10T15:13:37;14.50;99.90
40638;DHT22;26336;44.696;10.622;2023-05-10T15:16:44;14.50;99.90
40638;DHT22;26336;44.696;10.622;2023-05-10T15:19:48;14.60;99.90
40638;DHT22;26336;44.696;10.622;2023-05-10T15:22:52;14.60;99.90
40638;DHT22;26336;44.696;10.622;2023-05-10T15:25:56;14.60;99.90
40638;DHT22;26336;44.696;10.622;2023-05-10T15:29:00;14.60;99.90
40638;DHT22;26336;44.696;10.622;2023-05-10T15:32:04;14.60;99.90
40638;DHT22;26336;44.696;10.622;2023-05-10T15:35:08;14.60;99.90
40638;DHT22;26336;44.696;10.622;2023-05-10T15:38:13;14.60;99.90
40638;DHT22;26336;44.696;10.622;2023-05-10T15:41:17;14.60;99.90
40638;DHT22;26336;44.696;10.622;2023-05-10T15:44:21;14.70;99.90
40638;DHT22;26336;44.696;10.622;2023-05-10T15:47:25;14.70;99.90
40638;DHT22;26336;44.696;10.622;2023-05-10T15:50:30;14.70;99.90
40638;DHT22;26336;44.696;10.622;2023-05-10T15:53:37;14.70;99.90
40638;DHT22;26336;44.696;10.622;2023-05-10T15:56:47;14.70;99.90
40638;DHT22;26336;44.696;10.622;2023-05-10T15:59:53;14.70;99.90
40638;DHT22;26336;44.696;10.622;2023-05-10T16:02:56;14.70;99.90
40638;DHT22;26336;44.696;10.622;2023-05-10T16:06:00;14.60;99.90
40638;DHT22;26336;44.696;10.622;2023-05-10T16:09:04;14.60;99.90
40638;DHT22;26336;44.696;10.622;2023-05-10T16:12:08;14.60;99.90
40638;DHT22;26336;44.696;10.622;2023-05-10T16:15:12;14.60;99.90
40638;DHT22;26336;44.696;10.622;2023-05-10T16:18:16;14.60;99.90
40638;DHT22;26336;44.696;10.622;2023-05-10T16:21:22;14.60;99.90
40638;DHT22;26336;44.696;10.622;2023-05-10T16:24:26;14.70;99.90
40638;DHT22;26336;44.696;10.622;2023-05-10T16:27:30;14.60;99.90
40638;DHT22;26336;44.696;10.622;2023-05-10T16:30:35;14.60;99.90
40638;DHT22;26336;44.696;10.622;2023-05-10T16:33:41;14.60;99.90
40638;DHT22;26336;44.696;10.622;2023-05-10T16:36:46;14.60;99.90
40638;DHT22;26336;44.696;10.622;2023-05-10T16:39:50;14.60;99.90
40638;DHT22;26336;44.696;10.622;2023-05-10T16:42:54;14.60;99.90
40638;DHT22;26336;44.696;10.622;2023-05-10T16:45:57;14.60;99.90
40638;DHT22;26336;44.696;10.622;2023-05-10T16:49:01;14.60;99.90
40638;DHT22;26336;44.696;10.622;2023-05-10T16:52:05;14.60;99.90
40638;DHT22;26336;44.696;10.622;2023-05-10T16:55:09;14.60;99.90
40638;DHT22;26336;44.696;10.622;2023-05-10T16:58:13;14.60;99.90
40638;DHT22;26336;44.696;10.622;2023-05-10T17:01:17;14.60;99.90
40638;DHT22;26336;44.696;10.622;2023-05-10T17:04:21;14.60;99.90
40638;DHT22;26336;44.696;10.622;2023-05-10T17:07:25;14.60;99.90
40638;DHT22;26336;44.696;10.622;2023-05-10T17:10:31;14.60;99.90
40638;DHT22;26336;44.696;10.622;2023-05-10T17:13:35;14.60;99.90
40638;DHT22;26336;44.696;10.622;2023-05-10T17:16:40;14.60;99.90
40638;DHT22;26336;44.696;10.622;2023-05-10T17:19:47;14.60;99.90
40638;DHT22;26336;44.696;10.622;2023-05-10T17:22:51;14.60;99.90
40638;DHT22;26336;44.696;10.622;2023-05-10T17:25:55;14.70;99.90
40638;DHT22;26336;44.696;10.622;2023-05-10T17:28:59;14.70;99.90
40638;DHT22;26336;44.696;10.622;2023-05-10T17:32:03;14.60;99.90
40638;DHT22;26336;44.696;10.622;2023-05-10T17:35:07;14.70;99.90
40638;DHT22;26336;44.696;10.622;2023-05-10T17:38:12;14.60;99.90
40638;DHT22;26336;44.696;10.622;2023-05-10T17:41:16;14.60;99.90
40638;DHT22;26336;44.696;10.622;2023-05-10T17:44:20;14.60;99.90
40638;DHT22;26336;44.696;10.622;2023-05-10T17:47:24;14.60;99.90
40638;DHT22;26336;44.696;10.622;2023-05-10T17:50:28;14.60;99.90
40638;DHT22;26336;44.696;10.622;2023-05-10T17:53:32;14.60;99.90
40638;DHT22;26336;44.696;10.622;2023-05-10T17:56:37;14.60;99.90
40638;DHT22;26336;44.696;10.622;2023-05-10T17:59:41;14.60;99.90
40638;DHT22;26336;44.696;10.622;2023-05-10T18:02:45;14.60;99.90
40638;DHT22;26336;44.696;10.622;2023-05-10T18:05:58;14.60;99.90
40638;DHT22;26336;44.696;10.622;2023-05-10T18:09:02;14.60;99.90
40638;DHT22;26336;44.696;10.622;2023-05-10T18:12:07;14.60;99.90
40638;DHT22;26336;44.696;10.622;2023-05-10T18:15:11;14.60;99.90
40638;DHT22;26336;44.696;10.622;2023-05-10T18:18:15;14.60;99.90
40638;DHT22;26336;44.696;10.622;2023-05-10T18:21:19;14.60;99.90
40638;DHT22;26336;44.696;10.622;2023-05-10T18:24:23;14.60;99.90
40638;DHT22;26336;44.696;10.622;2023-05-10T18:27:27;14.60;99.90
40638;DHT22;26336;44.696;10.622;2023-05-10T18:30:31;14.50;99.90
40638;DHT22;26336;44.696;10.622;2023-05-10T18:33:35;14.60;99.90
40638;DHT22;26336;44.696;10.622;2023-05-10T18:36:39;14.60;99.90
40638;DHT22;26336;44.696;10.622;2023-05-10T18:39:46;14.60;99.90
40638;DHT22;26336;44.696;10.622;2023-05-10T18:42:50;14.60;99.90
40638;DHT22;26336;44.696;10.622;2023-05-10T18:45:56;14.60;99.90
40638;DHT22;26336;44.696;10.622;2023-05-10T18:49:00;14.60;99.90
40638;DHT22;26336;44.696;10.622;2023-05-10T18:52:05;14.60;99.90
40638;DHT22;26336;44.696;10.622;2023-05-10T18:55:09;14.60;99.90
40638;DHT22;26336;44.696;10.622;2023-05-10T18:58:13;14.60;99.90
40638;DHT22;26336;44.696;10.622;2023-05-10T19:01:17;14.60;99.90
40638;DHT22;26336;44.696;10.622;2023-05-10T19:04:21;14.50;99.90
40638;DHT22;26336;44.696;10.622;2023-05-10T19:07:25;14.50;99.90
40638;DHT22;26336;44.696;10.622;2023-05-10T19:10:31;14.50;99.90
40638;DHT22;26336;44.696;10.622;2023-05-10T19:13:36;14.50;99.90
40638;DHT22;26336;44.696;10.622;2023-05-10T19:16:40;14.50;99.90
40638;DHT22;26336;44.696;10.622;2023-05-10T19:19:44;14.60;99.90
40638;DHT22;26336;44.696;10.622;2023-05-10T19:22:48;14.50;99.90
40638;DHT22;26336;44.696;10.622;2023-05-10T19:25:55;14.50;99.90
40638;DHT22;26336;44.696;10.622;2023-05-10T19:28:59;14.50;99.90
40638;DHT22;26336;44.696;10.622;2023-05-10T19:32:03;14.40;99.90
40638;DHT22;26336;44.696;10.622;2023-05-10T19:35:08;14.40;99.90
40638;DHT22;26336;44.696;10.622;2023-05-10T19:38:12;14.30;99.90